createdAt,value
2018-06-03T00:00:50.818Z,14.07
2018-06-03T00:01:52.936Z,16.85
2018-06-03T00:02:55.062Z,16.15
2018-06-03T00:03:57.195Z,16.27
2018-06-03T00:04:59.304Z,14.78
2018-06-03T00:06:01.463Z,16.15
2018-06-03T00:07:03.587Z,17.50
2018-06-03T00:08:05.714Z,15.72
2018-06-03T00:09:07.870Z,16.25
2018-06-03T00:10:09.990Z,15.60
2018-06-03T00:11:12.094Z,15.95
2018-06-03T00:12:14.224Z,14.70
2018-06-03T00:13:16.372Z,14.85
2018-06-03T00:14:18.507Z,16.60
2018-06-03T00:15:20.621Z,16.48
2018-06-03T00:16:22.730Z,13.15
2018-06-03T00:17:24.877Z,15.45
2018-06-03T00:18:26.992Z,16.50
2018-06-03T00:19:29.097Z,14.50
2018-06-03T00:20:42.789Z,13.53
2018-06-03T00:21:50.250Z,13.88
2018-06-03T00:22:53.080Z,13.65
2018-06-03T00:23:55.239Z,13.65
2018-06-03T00:24:57.419Z,16.23
2018-06-03T00:25:59.578Z,16.95
2018-06-03T00:27:01.804Z,16.00
2018-06-03T00:28:04.071Z,18.82
2018-06-03T00:29:06.265Z,16.30
2018-06-03T00:30:08.431Z,17.73
2018-06-03T00:31:10.603Z,16.40
2018-06-03T00:32:12.816Z,16.48
2018-06-03T00:33:14.994Z,18.80
2018-06-03T00:34:17.160Z,16.57
2018-06-03T00:35:19.327Z,18.00
2018-06-03T00:36:33.179Z,15.10
2018-06-03T00:37:35.372Z,17.67
2018-06-03T00:38:37.562Z,13.00
2018-06-03T00:39:39.735Z,18.90
2018-06-03T00:40:41.898Z,17.27
2018-06-03T00:41:44.110Z,16.32
2018-06-03T00:42:46.286Z,17.65
2018-06-03T00:43:48.498Z,18.05
2018-06-03T00:44:50.659Z,15.75
2018-06-03T00:45:52.822Z,15.25
2018-06-03T00:46:54.999Z,17.98
2018-06-03T00:47:57.179Z,16.42
2018-06-03T00:48:59.380Z,15.20
2018-06-03T00:50:01.555Z,17.30
2018-06-03T00:51:03.758Z,15.32
2018-06-03T00:52:05.934Z,12.73
2018-06-03T00:53:08.098Z,16.00
2018-06-03T00:54:10.266Z,15.38
2018-06-03T00:55:12.426Z,17.82
2018-06-03T00:56:24.986Z,20.48
2018-06-03T00:57:27.147Z,14.13
2018-06-03T00:58:29.359Z,13.80
2018-06-03T00:59:31.523Z,15.15
2018-06-03T01:00:33.729Z,13.90
2018-06-03T01:01:35.895Z,14.03
2018-06-03T01:02:38.080Z,17.40
2018-06-03T01:03:40.282Z,21.70
2018-06-03T01:04:42.452Z,15.45
2018-06-03T01:05:44.614Z,19.02
2018-06-03T01:06:46.792Z,18.10
2018-06-03T01:07:48.980Z,16.90
2018-06-03T01:08:51.155Z,13.53
2018-06-03T01:09:53.318Z,15.05
2018-06-03T01:10:55.496Z,16.35
2018-06-03T01:11:57.669Z,16.95
2018-06-03T01:12:59.875Z,17.90
2018-06-03T01:14:02.091Z,15.98
2018-06-03T01:15:04.297Z,14.20
2018-06-03T01:16:06.482Z,15.58
2018-06-03T01:17:08.671Z,17.92
2018-06-03T01:18:10.847Z,15.85
2018-06-03T01:19:13.015Z,18.12
2018-06-03T01:20:15.209Z,13.72
2018-06-03T01:21:17.379Z,15.60
2018-06-03T01:22:19.569Z,15.43
2018-06-03T01:23:21.764Z,15.45
2018-06-03T01:24:23.951Z,15.10
2018-06-03T01:25:26.145Z,15.55
2018-06-03T01:26:28.315Z,17.70
2018-06-03T01:27:30.495Z,18.05
2018-06-03T01:28:32.705Z,19.10
2018-06-03T01:29:34.889Z,15.85
2018-06-03T01:30:37.059Z,17.65
2018-06-03T01:31:39.247Z,11.95
2018-06-03T01:32:41.411Z,18.52
2018-06-03T01:33:43.635Z,15.80
2018-06-03T01:34:45.808Z,15.65
2018-06-03T01:35:47.987Z,17.30
2018-06-03T01:36:50.188Z,17.07
2018-06-03T01:37:52.354Z,15.38
2018-06-03T01:38:54.534Z,16.80
2018-06-03T01:39:56.698Z,18.77
2018-06-03T01:40:58.867Z,18.17
2018-06-03T01:42:01.038Z,18.30
2018-06-03T01:43:03.238Z,18.17
2018-06-03T01:44:05.415Z,16.17
2018-06-03T01:45:07.582Z,17.32
2018-06-03T01:46:09.750Z,22.25
2018-06-03T01:47:11.912Z,17.92
2018-06-03T01:48:14.102Z,16.48
2018-06-03T01:49:16.278Z,14.38
2018-06-03T01:50:18.442Z,16.82
2018-06-03T01:51:20.614Z,19.35
2018-06-03T01:52:22.776Z,16.10
2018-06-03T01:53:24.954Z,18.75
2018-06-03T01:54:27.130Z,14.38
2018-06-03T01:55:29.303Z,16.70
2018-06-03T01:56:31.487Z,17.07
2018-06-03T01:57:33.651Z,14.60
2018-06-03T01:58:35.820Z,14.20
2018-06-03T01:59:38.003Z,13.62
2018-06-03T02:00:40.159Z,17.73
2018-06-03T02:01:42.332Z,14.07
2018-06-03T02:02:44.507Z,15.18
2018-06-03T02:03:46.713Z,19.52
2018-06-03T02:04:48.895Z,18.67
2018-06-03T02:05:51.046Z,14.73
2018-06-03T02:06:53.237Z,20.77
2018-06-03T02:07:55.430Z,19.12
2018-06-03T02:08:57.614Z,18.45
2018-06-03T02:09:59.790Z,18.02
2018-06-03T02:11:01.967Z,28.62
2018-06-03T02:12:04.186Z,19.40
2018-06-03T02:13:06.355Z,20.60
2018-06-03T02:14:08.515Z,18.07
2018-06-03T02:15:10.684Z,18.17
2018-06-03T02:16:12.854Z,14.33
2018-06-03T02:17:15.026Z,16.77
2018-06-03T02:18:17.215Z,17.70
2018-06-03T02:19:19.394Z,13.72
2018-06-03T02:20:21.574Z,16.87
2018-06-03T02:21:23.739Z,16.17
2018-06-03T02:22:25.894Z,15.95
2018-06-03T02:23:28.070Z,19.52
2018-06-03T02:24:30.278Z,18.45
2018-06-03T02:25:32.454Z,17.70
2018-06-03T02:26:34.658Z,15.98
2018-06-03T02:27:36.867Z,19.92
2018-06-03T02:28:39.054Z,18.25
2018-06-03T02:29:41.243Z,16.23
2018-06-03T02:30:43.403Z,18.92
2018-06-03T02:31:45.619Z,19.62
2018-06-03T02:32:47.823Z,18.67
2018-06-03T02:33:50.028Z,18.77
2018-06-03T02:34:52.230Z,17.00
2018-06-03T02:35:54.414Z,14.10
2018-06-03T02:36:56.570Z,16.10
2018-06-03T02:37:58.727Z,17.90
2018-06-03T02:39:00.935Z,18.85
2018-06-03T02:40:03.850Z,15.32
2018-06-03T02:41:06.042Z,14.40
2018-06-03T02:42:08.330Z,17.15
2018-06-03T02:43:10.511Z,17.75
2018-06-03T02:44:12.692Z,15.45
2018-06-03T02:45:14.896Z,17.85
2018-06-03T02:46:17.109Z,21.45
2018-06-03T02:47:19.271Z,18.73
2018-06-03T02:48:21.466Z,16.73
2018-06-03T02:49:23.651Z,17.30
2018-06-03T02:50:25.856Z,16.25
2018-06-03T02:51:28.060Z,18.77
2018-06-03T02:52:30.239Z,16.73
2018-06-03T02:53:32.431Z,17.70
2018-06-03T02:54:34.603Z,15.50
2018-06-03T02:55:36.784Z,17.37
2018-06-03T02:56:38.938Z,16.67
2018-06-03T02:57:41.102Z,14.55
2018-06-03T02:58:43.303Z,16.48
2018-06-03T02:59:45.479Z,16.32
2018-06-03T03:00:47.676Z,20.75
2018-06-03T03:01:49.851Z,16.52
2018-06-03T03:02:52.003Z,16.07
2018-06-03T03:03:54.158Z,17.60
2018-06-03T03:04:56.363Z,14.47
2018-06-03T03:05:58.543Z,18.15
2018-06-03T03:07:00.711Z,18.57
2018-06-03T03:08:02.882Z,15.50
2018-06-03T03:09:05.384Z,16.15
2018-06-03T03:10:07.575Z,18.30
2018-06-03T03:11:09.751Z,16.17
2018-06-03T03:12:11.943Z,18.75
2018-06-03T03:13:14.129Z,17.75
2018-06-03T03:14:16.303Z,13.88
2018-06-03T03:15:18.480Z,16.80
2018-06-03T03:16:20.644Z,17.10
2018-06-03T03:17:22.814Z,15.60
2018-06-03T03:18:24.990Z,13.28
2018-06-03T03:19:27.149Z,18.10
2018-06-03T03:20:29.342Z,28.12
2018-06-03T03:21:31.530Z,14.75
2018-06-03T03:22:33.710Z,17.27
2018-06-03T03:23:35.884Z,17.40
2018-06-03T03:24:38.060Z,13.28
2018-06-03T03:25:40.271Z,18.02
2018-06-03T03:26:42.483Z,17.37
2018-06-03T03:27:44.659Z,14.25
2018-06-03T03:28:46.819Z,15.70
2018-06-03T03:29:49.003Z,15.15
2018-06-03T03:30:51.569Z,15.10
2018-06-03T03:31:53.753Z,16.65
2018-06-03T03:32:55.928Z,13.70
2018-06-03T03:33:58.106Z,14.45
2018-06-03T03:35:00.273Z,17.02
2018-06-03T03:36:02.489Z,15.83
2018-06-03T03:37:04.649Z,14.23
2018-06-03T03:38:06.811Z,14.18
2018-06-03T03:39:09.677Z,17.32
2018-06-03T03:40:11.860Z,15.75
2018-06-03T03:41:14.039Z,18.80
2018-06-03T03:42:16.227Z,16.20
2018-06-03T03:43:18.442Z,14.00
2018-06-03T03:44:20.644Z,16.45
2018-06-03T03:45:22.860Z,18.17
2018-06-03T03:46:25.015Z,16.40
2018-06-03T03:47:27.174Z,17.37
2018-06-03T03:48:29.331Z,20.75
2018-06-03T03:49:31.486Z,18.62
2018-06-03T03:50:33.661Z,21.20
2018-06-03T03:51:35.854Z,21.23
2018-06-03T03:52:38.023Z,19.17
2018-06-03T03:53:40.180Z,20.68
2018-06-03T03:54:42.338Z,23.40
2018-06-03T03:55:44.514Z,16.82
2018-06-03T03:56:46.698Z,13.65
2018-06-03T03:57:48.862Z,19.25
2018-06-03T03:58:51.048Z,15.85
2018-06-03T03:59:53.223Z,15.80
2018-06-03T04:00:55.396Z,16.45
2018-06-03T04:03:23.019Z,19.20
2018-06-03T04:04:25.344Z,14.10
2018-06-03T04:05:27.611Z,18.77
2018-06-03T04:06:29.909Z,17.15
2018-06-03T04:07:32.142Z,16.52
2018-06-03T04:08:34.379Z,19.15
2018-06-03T04:09:36.630Z,18.37
2018-06-03T04:10:38.859Z,14.87
2018-06-03T04:11:41.099Z,17.87
2018-06-03T04:12:43.362Z,15.03
2018-06-03T04:13:45.617Z,15.32
2018-06-03T04:14:47.994Z,18.50
2018-06-03T04:15:50.292Z,13.88
2018-06-03T04:16:52.546Z,17.55
2018-06-03T04:17:54.807Z,17.73
2018-06-03T04:18:57.034Z,12.82
2018-06-03T04:19:59.271Z,18.05
2018-06-03T04:21:01.510Z,16.17
2018-06-03T04:22:03.753Z,13.32
2018-06-03T04:23:05.988Z,17.37
2018-06-03T04:24:08.249Z,15.18
2018-06-03T04:25:10.468Z,17.65
2018-06-03T04:26:12.710Z,16.25
2018-06-03T04:27:14.977Z,17.85
2018-06-03T04:28:17.199Z,16.02
2018-06-03T04:29:19.422Z,17.20
2018-06-03T04:30:21.686Z,18.35
2018-06-03T04:31:23.912Z,16.23
2018-06-03T04:32:26.172Z,17.73
2018-06-03T04:33:28.437Z,14.38
2018-06-03T04:34:30.682Z,16.73
2018-06-03T04:35:32.927Z,14.45
2018-06-03T04:36:35.160Z,13.38
2018-06-03T04:37:37.403Z,16.82
2018-06-03T04:38:39.659Z,17.37
2018-06-03T04:39:41.932Z,14.35
2018-06-03T04:40:44.190Z,16.90
2018-06-03T04:41:46.433Z,14.80
2018-06-03T04:42:48.710Z,16.17
2018-06-03T04:43:50.934Z,16.07
2018-06-03T04:44:53.187Z,17.32
2018-06-03T04:45:55.462Z,15.10
2018-06-03T04:46:57.719Z,20.48
2018-06-03T04:47:59.963Z,17.77
2018-06-03T04:49:02.210Z,13.55
2018-06-03T04:50:04.503Z,16.40
2018-06-03T04:51:06.758Z,14.65
2018-06-03T04:52:08.990Z,16.07
2018-06-03T04:53:11.224Z,17.42
2018-06-03T04:54:13.462Z,13.88
2018-06-03T04:55:15.694Z,14.23
2018-06-03T04:56:17.957Z,16.42
2018-06-03T04:57:20.190Z,14.75
2018-06-03T04:58:22.470Z,17.30
2018-06-03T04:59:24.771Z,15.53
2018-06-03T05:00:27.034Z,16.00
2018-06-03T05:01:29.260Z,18.42
2018-06-03T05:02:31.510Z,17.67
2018-06-03T05:03:33.802Z,16.12
2018-06-03T05:04:36.018Z,15.20
2018-06-03T05:05:38.257Z,17.35
2018-06-03T05:06:40.553Z,16.00
2018-06-03T05:07:42.783Z,20.15
2018-06-03T05:08:45.051Z,15.93
2018-06-03T05:09:47.305Z,18.10
2018-06-03T05:10:49.559Z,15.95
2018-06-03T05:11:51.824Z,16.40
2018-06-03T05:12:54.088Z,15.08
2018-06-03T05:13:56.327Z,16.73
2018-06-03T05:14:58.599Z,17.70
2018-06-03T05:16:00.848Z,16.73
2018-06-03T05:17:03.125Z,18.02
2018-06-03T05:18:05.382Z,17.70
2018-06-03T05:19:07.639Z,21.07
2018-06-03T05:20:09.862Z,20.72
2018-06-03T05:21:12.082Z,17.17
2018-06-03T05:22:14.315Z,22.15
2018-06-03T05:23:16.603Z,21.33
2018-06-03T05:24:18.819Z,13.93
2018-06-03T05:25:21.042Z,18.67
2018-06-03T05:26:23.278Z,19.87
2018-06-03T05:27:25.538Z,15.93
2018-06-03T05:28:27.786Z,18.52
2018-06-03T05:29:30.002Z,21.50
2018-06-03T05:30:32.214Z,17.45
2018-06-03T05:31:34.454Z,19.05
2018-06-03T05:32:36.698Z,16.32
2018-06-03T05:33:38.942Z,21.90
2018-06-03T05:34:41.178Z,19.70
2018-06-03T05:35:43.446Z,18.17
2018-06-03T05:36:45.679Z,16.40
2018-06-03T05:37:47.934Z,17.10
2018-06-03T05:38:50.204Z,15.35
2018-06-03T05:39:52.464Z,24.25
2018-06-03T05:40:54.731Z,18.17
2018-06-03T05:41:56.970Z,13.88
2018-06-03T05:42:59.215Z,15.05
2018-06-03T05:44:01.502Z,17.67
2018-06-03T05:45:03.778Z,15.40
2018-06-03T05:46:06.003Z,18.15
2018-06-03T05:47:08.232Z,16.97
2018-06-03T05:48:10.551Z,14.30
2018-06-03T05:49:12.782Z,17.98
2018-06-03T05:50:15.012Z,15.90
2018-06-03T05:51:17.273Z,14.28
2018-06-03T05:52:19.518Z,17.42
2018-06-03T05:53:21.745Z,14.85
2018-06-03T05:54:23.993Z,16.67
2018-06-03T05:55:26.235Z,14.80
2018-06-03T05:56:28.475Z,18.10
2018-06-03T05:57:30.715Z,18.67
2018-06-03T05:58:32.954Z,17.65
2018-06-03T05:59:35.198Z,17.85
2018-06-03T06:00:37.432Z,15.25
2018-06-03T06:01:39.672Z,15.58
2018-06-03T06:02:41.895Z,16.67
2018-06-03T06:03:44.135Z,18.10
2018-06-03T06:04:46.416Z,19.82
2018-06-03T06:05:48.737Z,16.82
2018-06-03T06:06:50.950Z,15.10
2018-06-03T06:07:53.190Z,19.57
2018-06-03T06:08:55.447Z,20.10
2018-06-03T06:09:57.661Z,12.88
2018-06-03T06:10:59.913Z,17.87
2018-06-03T06:12:02.202Z,17.87
2018-06-03T06:13:04.434Z,16.67
2018-06-03T06:14:06.718Z,18.50
2018-06-03T06:15:08.943Z,18.98
2018-06-03T06:16:11.186Z,13.65
2018-06-03T06:17:13.581Z,15.50
2018-06-03T06:18:15.837Z,14.10
2018-06-03T06:19:18.122Z,15.30
2018-06-03T06:20:20.377Z,17.85
2018-06-03T06:21:22.682Z,17.17
2018-06-03T06:22:24.946Z,17.12
2018-06-03T06:23:27.178Z,16.45
2018-06-03T06:24:29.420Z,16.97
2018-06-03T06:25:31.653Z,21.60
2018-06-03T06:26:33.897Z,17.40
2018-06-03T06:27:36.131Z,16.75
2018-06-03T06:28:38.403Z,19.80
2018-06-03T06:29:40.668Z,16.57
2018-06-03T06:30:42.927Z,18.62
2018-06-03T06:31:45.163Z,14.73
2018-06-03T06:32:47.398Z,14.10
2018-06-03T06:33:49.638Z,15.23
2018-06-03T06:34:51.942Z,17.80
2018-06-03T06:35:54.111Z,20.48
2018-06-03T06:36:56.355Z,17.95
2018-06-03T06:37:58.622Z,14.68
2018-06-03T06:39:00.858Z,14.28
2018-06-03T06:40:03.171Z,18.00
2018-06-03T06:41:05.482Z,16.87
2018-06-03T06:42:07.688Z,14.38
2018-06-03T06:43:09.886Z,19.67
2018-06-03T06:44:12.110Z,21.35
2018-06-03T06:45:14.311Z,15.10
2018-06-03T06:46:16.539Z,18.15
2018-06-03T06:47:18.735Z,17.80
2018-06-03T06:48:20.955Z,20.00
2018-06-03T06:49:23.179Z,16.42
2018-06-03T06:50:25.503Z,17.92
2018-06-03T06:51:27.748Z,16.40
2018-06-03T06:52:29.981Z,18.73
2018-06-03T06:53:32.174Z,17.10
2018-06-03T06:54:34.418Z,15.45
2018-06-03T06:55:36.621Z,18.17
2018-06-03T06:56:38.828Z,17.37
2018-06-03T06:57:41.053Z,13.75
2018-06-03T06:58:43.262Z,17.73
2018-06-03T06:59:45.471Z,16.23
2018-06-03T07:00:47.698Z,13.38
2018-06-03T07:01:49.915Z,15.30
2018-06-03T07:02:52.144Z,14.28
2018-06-03T07:03:54.390Z,15.88
2018-06-03T07:04:56.602Z,15.32
2018-06-03T07:05:58.814Z,14.50
2018-06-03T07:07:01.012Z,14.95
2018-06-03T07:08:03.223Z,16.85
2018-06-03T07:09:06.111Z,16.80
2018-06-03T07:10:08.123Z,16.87
2018-06-03T07:11:10.306Z,18.42
2018-06-03T07:12:12.515Z,14.15
2018-06-03T07:13:14.779Z,15.60
2018-06-03T07:14:16.926Z,17.45
2018-06-03T07:15:19.119Z,15.30
2018-06-03T07:16:21.347Z,14.85
2018-06-03T07:17:23.567Z,14.68
2018-06-03T07:18:25.759Z,17.30
2018-06-03T07:19:28.580Z,11.85
2018-06-03T07:20:30.810Z,13.43
2018-06-03T07:21:33.001Z,13.68
2018-06-03T07:22:35.210Z,13.95
2018-06-03T07:23:37.415Z,19.42
2018-06-03T07:24:39.638Z,16.02
2018-06-03T07:25:41.875Z,15.48
2018-06-03T07:26:44.265Z,13.30
2018-06-03T07:27:46.506Z,14.33
2018-06-03T07:28:48.746Z,14.00
2018-06-03T07:29:51.006Z,14.58
2018-06-03T07:30:53.231Z,16.25
2018-06-03T07:31:55.449Z,14.90
2018-06-03T07:32:57.686Z,15.00
2018-06-03T07:33:59.907Z,14.20
2018-06-03T07:35:02.125Z,15.68
2018-06-03T07:36:04.392Z,15.35
2018-06-03T07:37:06.605Z,15.75
2018-06-03T07:38:08.807Z,16.75
2018-06-03T07:39:11.030Z,15.18
2018-06-03T07:40:13.276Z,13.72
2018-06-03T07:41:15.890Z,14.43
2018-06-03T07:42:18.094Z,13.20
2018-06-03T07:43:20.315Z,15.65
2018-06-03T07:44:22.528Z,15.78
2018-06-03T07:45:24.760Z,15.68
2018-06-03T07:46:26.976Z,15.38
2018-06-03T07:47:29.183Z,16.20
2018-06-03T07:48:31.399Z,14.50
2018-06-03T07:49:33.611Z,14.35
2018-06-03T07:50:35.835Z,15.48
2018-06-03T07:51:38.056Z,12.80
2018-06-03T07:52:40.296Z,13.35
2018-06-03T07:53:42.571Z,15.70
2018-06-03T07:54:44.776Z,13.78
2018-06-03T07:55:47.012Z,17.27
2018-06-03T07:56:49.234Z,15.28
2018-06-03T07:57:51.479Z,11.53
2018-06-03T07:58:53.698Z,14.87
2018-06-03T08:01:30.675Z,13.65
2018-06-03T08:02:32.867Z,15.48
2018-06-03T08:03:35.031Z,12.23
2018-06-03T08:04:37.226Z,12.50
2018-06-03T08:05:39.418Z,15.72
2018-06-03T08:06:41.579Z,13.72
2018-06-03T08:07:43.775Z,12.73
2018-06-03T08:08:45.959Z,15.88
2018-06-03T08:09:48.130Z,15.63
2018-06-03T08:10:50.326Z,11.25
2018-06-03T08:11:52.506Z,15.80
2018-06-03T08:12:54.694Z,14.68
2018-06-03T08:13:56.915Z,14.18
2018-06-03T08:14:59.103Z,14.15
2018-06-03T08:16:01.342Z,18.57
2018-06-03T08:17:03.536Z,16.80
2018-06-03T08:18:05.746Z,14.38
2018-06-03T08:19:07.995Z,16.02
2018-06-03T08:20:10.175Z,14.40
2018-06-03T08:21:12.350Z,13.10
2018-06-03T08:22:14.558Z,15.00
2018-06-03T08:23:16.731Z,22.40
2018-06-03T08:24:18.927Z,16.50
2018-06-03T08:25:21.131Z,20.48
2018-06-03T08:26:23.310Z,18.30
2018-06-03T08:27:25.476Z,18.42
2018-06-03T08:28:27.696Z,17.77
2018-06-03T08:29:29.867Z,19.48
2018-06-03T08:30:32.055Z,13.72
2018-06-03T08:31:34.235Z,14.15
2018-06-03T08:32:36.408Z,17.57
2018-06-03T08:33:38.598Z,15.25
2018-06-03T08:34:40.782Z,15.05
2018-06-03T08:35:42.960Z,13.62
2018-06-03T08:36:45.143Z,13.68
2018-06-03T08:37:47.326Z,15.03
2018-06-03T08:38:49.506Z,14.98
2018-06-03T08:39:51.760Z,14.98
2018-06-03T08:40:53.974Z,11.03
2018-06-03T08:41:56.151Z,12.40
2018-06-03T08:42:58.359Z,15.20
2018-06-03T08:44:00.603Z,13.68
2018-06-03T08:45:02.826Z,13.43
2018-06-03T08:46:05.034Z,19.07
2018-06-03T08:47:07.237Z,16.60
2018-06-03T08:48:09.451Z,13.75
2018-06-03T08:49:11.624Z,18.00
2018-06-03T08:50:13.797Z,12.37
2018-06-03T08:51:15.986Z,12.05
2018-06-03T08:52:18.160Z,16.30
2018-06-03T08:53:20.346Z,12.95
2018-06-03T08:54:22.538Z,11.75
2018-06-03T08:55:24.695Z,13.38
2018-06-03T08:56:26.919Z,14.23
2018-06-03T08:57:29.098Z,14.15
2018-06-03T08:58:31.291Z,13.68
2018-06-03T08:59:33.503Z,13.65
2018-06-03T09:00:35.707Z,15.38
2018-06-03T09:01:37.876Z,14.45
2018-06-03T09:02:40.063Z,11.20
2018-06-03T09:03:42.246Z,12.37
2018-06-03T09:04:44.434Z,16.48
2018-06-03T09:05:46.602Z,15.98
2018-06-03T09:06:48.780Z,14.95
2018-06-03T09:07:50.960Z,12.60
2018-06-03T09:08:53.131Z,17.02
2018-06-03T09:09:55.335Z,13.03
2018-06-03T09:10:57.594Z,13.22
2018-06-03T09:11:59.766Z,13.40
2018-06-03T09:13:01.982Z,12.47
2018-06-03T09:14:04.155Z,11.70
2018-06-03T09:15:06.326Z,18.62
2018-06-03T09:16:08.510Z,14.05
2018-06-03T09:17:10.703Z,12.47
2018-06-03T09:18:12.927Z,13.28
2018-06-03T09:19:15.119Z,13.75
2018-06-03T09:20:17.338Z,11.00
2018-06-03T09:21:19.538Z,12.30
2018-06-03T09:22:21.753Z,15.45
2018-06-03T09:23:23.944Z,14.25
2018-06-03T09:24:26.120Z,12.98
2018-06-03T09:25:28.310Z,13.45
2018-06-03T09:26:30.483Z,15.25
2018-06-03T09:27:32.683Z,14.23
2018-06-03T09:28:34.870Z,13.43
2018-06-03T09:29:37.043Z,15.13
2018-06-03T09:30:39.271Z,10.95
2018-06-03T09:31:41.478Z,11.55
2018-06-03T09:32:43.651Z,14.50
2018-06-03T09:33:45.814Z,14.00
2018-06-03T09:34:47.990Z,11.25
2018-06-03T09:35:50.207Z,13.13
2018-06-03T09:36:52.414Z,12.37
2018-06-03T09:37:54.610Z,10.45
2018-06-03T09:38:56.823Z,13.50
2018-06-03T09:39:59.003Z,15.63
2018-06-03T09:41:01.171Z,12.03
2018-06-03T09:42:03.420Z,12.78
2018-06-03T09:43:05.547Z,14.07
2018-06-03T09:44:07.737Z,11.78
2018-06-03T09:45:09.950Z,11.10
2018-06-03T09:46:12.145Z,14.80
2018-06-03T09:47:14.334Z,12.82
2018-06-03T09:48:16.530Z,12.10
2018-06-03T09:49:18.707Z,14.35
2018-06-03T09:50:20.879Z,13.13
2018-06-03T09:51:23.051Z,10.88
2018-06-03T09:52:25.254Z,15.38
2018-06-03T09:53:27.467Z,13.13
2018-06-03T09:54:29.658Z,13.58
2018-06-03T09:55:31.856Z,13.70
2018-06-03T09:56:34.416Z,13.40
2018-06-03T09:57:36.596Z,10.98
2018-06-03T09:58:38.779Z,13.15
2018-06-03T09:59:40.954Z,13.62
2018-06-03T10:00:43.128Z,11.97
2018-06-03T10:01:45.327Z,13.95
2018-06-03T10:02:47.530Z,15.23
2018-06-03T10:03:49.706Z,11.63
2018-06-03T10:04:51.887Z,12.60
2018-06-03T10:05:54.046Z,14.70
2018-06-03T10:06:56.265Z,12.60
2018-06-03T10:07:58.458Z,14.80
2018-06-03T10:09:00.693Z,11.95
2018-06-03T10:10:02.927Z,10.30
2018-06-03T10:11:05.308Z,11.57
2018-06-03T10:12:07.483Z,13.03
2018-06-03T10:13:09.694Z,12.20
2018-06-03T10:14:11.887Z,11.20
2018-06-03T10:15:14.059Z,13.18
2018-06-03T10:16:16.251Z,11.88
2018-06-03T10:17:18.470Z,10.03
2018-06-03T10:18:20.655Z,12.33
2018-06-03T10:19:22.862Z,12.85
2018-06-03T10:20:25.078Z,9.78
2018-06-03T10:21:27.319Z,13.15
2018-06-03T10:22:29.466Z,15.65
2018-06-03T10:23:31.655Z,10.55
2018-06-03T10:24:33.867Z,14.55
2018-06-03T10:25:36.067Z,13.08
2018-06-03T10:26:38.255Z,12.20
2018-06-03T10:27:40.453Z,13.40
2018-06-03T10:28:42.640Z,12.90
2018-06-03T10:29:44.860Z,11.85
2018-06-03T10:30:47.034Z,10.60
2018-06-03T10:31:49.283Z,13.15
2018-06-03T10:32:51.482Z,10.35
2018-06-03T10:33:53.923Z,13.58
2018-06-03T10:34:56.115Z,12.95
2018-06-03T10:35:58.359Z,9.80
2018-06-03T10:37:00.562Z,14.13
2018-06-03T10:38:02.739Z,13.43
2018-06-03T10:39:06.233Z,9.58
2018-06-03T10:40:08.485Z,11.65
2018-06-03T10:41:10.686Z,13.62
2018-06-03T10:42:12.910Z,12.33
2018-06-03T10:43:15.121Z,10.15
2018-06-03T10:44:17.346Z,14.10
2018-06-03T10:45:19.540Z,12.82
2018-06-03T10:46:21.787Z,8.75
2018-06-03T10:47:23.995Z,12.65
2018-06-03T10:48:26.189Z,12.35
2018-06-03T10:49:28.392Z,9.30
2018-06-03T10:50:30.630Z,13.90
2018-06-03T10:51:32.843Z,12.20
2018-06-03T10:52:35.035Z,8.63
2018-06-03T10:53:37.190Z,11.68
2018-06-03T10:54:39.426Z,11.78
2018-06-03T10:55:41.603Z,12.07
2018-06-03T10:56:43.850Z,13.13
2018-06-03T10:57:46.035Z,13.72
2018-06-03T10:58:48.235Z,12.00
2018-06-03T10:59:50.426Z,12.03
2018-06-03T11:00:52.623Z,14.38
2018-06-03T11:01:54.947Z,12.33
2018-06-03T11:02:57.177Z,11.48
2018-06-03T11:03:59.375Z,12.10
2018-06-03T11:05:01.566Z,10.23
2018-06-03T11:06:03.808Z,10.60
2018-06-03T11:07:06.008Z,14.03
2018-06-03T11:08:08.200Z,10.65
2018-06-03T11:09:10.582Z,11.28
2018-06-03T11:10:12.778Z,12.43
2018-06-03T11:11:15.023Z,10.15
2018-06-03T11:12:17.238Z,12.05
2018-06-03T11:13:19.415Z,14.33
2018-06-03T11:14:21.590Z,13.85
2018-06-03T11:15:23.811Z,11.97
2018-06-03T11:16:25.999Z,16.02
2018-06-03T11:17:28.205Z,13.25
2018-06-03T11:18:30.362Z,14.50
2018-06-03T11:19:32.531Z,14.07
2018-06-03T11:20:34.751Z,12.60
2018-06-03T11:21:36.997Z,11.38
2018-06-03T11:22:39.190Z,14.43
2018-06-03T11:23:41.351Z,12.98
2018-06-03T11:24:43.551Z,9.43
2018-06-03T11:25:45.727Z,12.37
2018-06-03T11:26:47.937Z,12.85
2018-06-03T11:27:50.114Z,10.15
2018-06-03T11:28:52.301Z,11.20
2018-06-03T11:29:55.490Z,11.70
2018-06-03T11:30:57.723Z,12.25
2018-06-03T11:31:59.902Z,12.82
2018-06-03T11:33:02.062Z,9.05
2018-06-03T11:34:04.307Z,11.55
2018-06-03T11:35:06.497Z,11.95
2018-06-03T11:36:08.695Z,9.78
2018-06-03T11:37:10.927Z,11.80
2018-06-03T11:38:13.127Z,11.25
2018-06-03T11:39:15.315Z,8.20
2018-06-03T11:40:17.522Z,11.25
2018-06-03T11:41:19.711Z,13.00
2018-06-03T11:42:21.919Z,9.65
2018-06-03T11:43:24.118Z,9.90
2018-06-03T11:44:26.350Z,11.70
2018-06-03T11:45:28.567Z,10.55
2018-06-03T11:46:30.768Z,10.93
2018-06-03T11:47:32.966Z,13.13
2018-06-03T11:48:35.143Z,10.60
2018-06-03T11:49:37.323Z,10.08
2018-06-03T11:50:39.510Z,11.55
2018-06-03T11:51:41.706Z,11.70
2018-06-03T11:52:43.866Z,9.33
2018-06-03T11:53:46.090Z,19.60
2018-06-03T11:54:48.228Z,11.38
2018-06-03T11:55:50.439Z,11.10
2018-06-03T11:56:59.195Z,10.68
2018-06-03T11:58:40.804Z,11.78
2018-06-03T11:59:43.763Z,8.60
2018-06-03T12:00:45.960Z,7.87
2018-06-03T12:01:48.204Z,12.50
2018-06-03T12:02:50.358Z,13.22
2018-06-03T12:03:52.538Z,8.85
2018-06-03T12:04:54.740Z,11.22
2018-06-03T12:05:56.955Z,12.55
2018-06-03T12:06:59.145Z,9.75
2018-06-03T12:08:01.369Z,11.83
2018-06-03T12:09:05.283Z,13.22
2018-06-03T12:10:07.470Z,10.23
2018-06-03T12:11:09.651Z,12.90
2018-06-03T12:12:11.837Z,11.00
2018-06-03T12:14:22.927Z,9.23
2018-06-03T12:15:25.110Z,9.93
2018-06-03T12:16:27.283Z,10.28
2018-06-03T12:17:29.465Z,10.98
2018-06-03T12:18:31.639Z,13.45
2018-06-03T12:19:33.814Z,8.48
2018-06-03T12:20:36.008Z,10.95
2018-06-03T12:21:38.210Z,11.15
2018-06-03T12:22:40.427Z,10.60
2018-06-03T12:23:42.607Z,10.13
2018-06-03T12:24:44.790Z,11.68
2018-06-03T12:25:47.013Z,10.78
2018-06-03T12:26:49.217Z,8.70
2018-06-03T12:27:51.386Z,11.22
2018-06-03T12:28:53.594Z,12.98
2018-06-03T12:29:55.784Z,10.10
2018-06-03T12:30:57.955Z,14.25
2018-06-03T12:32:00.171Z,12.47
2018-06-03T12:33:02.355Z,10.90
2018-06-03T12:34:04.523Z,10.38
2018-06-03T12:35:06.742Z,11.75
2018-06-03T12:36:08.925Z,10.53
2018-06-03T12:37:11.119Z,13.72
2018-06-03T12:38:13.336Z,10.95
2018-06-03T12:39:15.605Z,9.58
2018-06-03T12:40:17.903Z,9.48
2018-06-03T12:41:20.121Z,10.95
2018-06-03T12:42:22.294Z,7.85
2018-06-03T12:43:24.499Z,9.78
2018-06-03T12:44:26.777Z,12.15
2018-06-03T12:45:29.007Z,10.15
2018-06-03T12:46:31.215Z,10.00
2018-06-03T12:47:33.421Z,10.45
2018-06-03T12:48:35.614Z,9.90
2018-06-03T12:49:37.819Z,10.72
2018-06-03T12:50:40.003Z,12.45
2018-06-03T12:52:51.049Z,10.82
2018-06-03T12:53:53.230Z,14.60
2018-06-03T12:54:55.410Z,9.45
2018-06-03T12:55:57.607Z,11.12
2018-06-03T12:56:59.814Z,15.98
2018-06-03T12:58:01.995Z,13.08
2018-06-03T12:59:04.239Z,10.65
2018-06-03T13:00:06.454Z,15.23
2018-06-03T13:01:08.683Z,15.15
2018-06-03T13:02:10.842Z,12.07
2018-06-03T13:03:13.111Z,12.25
2018-06-03T13:04:15.261Z,12.05
2018-06-03T13:05:17.447Z,10.03
2018-06-03T13:06:19.638Z,11.40
2018-06-03T13:07:21.842Z,8.25
2018-06-03T13:08:24.071Z,8.93
2018-06-03T13:09:26.278Z,9.28
2018-06-03T13:10:28.463Z,12.40
2018-06-03T13:11:30.653Z,10.72
2018-06-03T13:12:32.824Z,7.42
2018-06-03T13:13:34.994Z,10.68
2018-06-03T13:14:37.187Z,9.80
2018-06-03T13:15:39.367Z,7.80
2018-06-03T13:16:41.554Z,10.28
2018-06-03T13:17:43.738Z,9.98
2018-06-03T13:18:45.915Z,10.30
2018-06-03T13:19:48.115Z,9.65
2018-06-03T13:20:50.327Z,11.40
2018-06-03T13:21:52.534Z,9.55
2018-06-03T13:22:54.719Z,9.10
2018-06-03T13:23:56.898Z,10.75
2018-06-03T13:24:59.111Z,11.68
2018-06-03T13:26:01.361Z,7.85
2018-06-03T13:27:03.558Z,11.45
2018-06-03T13:28:05.804Z,10.80
2018-06-03T13:29:07.983Z,7.78